createdAt,value
2023-02-04T00:03:03.368Z,56.36
2023-02-04T00:08:08.523Z,56.72
2023-02-04T00:13:13.370Z,56.59
2023-02-04T00:18:29.388Z,56.13
2023-02-04T00:23:35.648Z,55.91
2023-02-04T00:28:46.736Z,55.68
2023-02-04T00:33:50.701Z,55.79
2023-02-04T00:39:01.333Z,54.57
2023-02-04T00:44:08.038Z,54.14
2023-02-04T00:49:12.633Z,54.72
2023-02-04T00:54:20.825Z,53.92
2023-02-04T00:59:25.955Z,52.89
2023-02-04T01:04:33.056Z,52.45
2023-02-04T01:09:34.532Z,53.75
2023-02-04T01:14:36.100Z,52.31
2023-02-04T01:19:45.000Z,52.35
2023-02-04T01:24:47.761Z,52.30
2023-02-04T01:30:12.391Z,52.16
2023-02-04T01:35:26.382Z,52.11
2023-02-04T01:40:28.184Z,52.55
2023-02-04T01:45:52.319Z,52.15
2023-02-04T01:51:06.737Z,51.87
2023-02-04T01:56:23.221Z,51.84
2023-02-04T02:01:38.168Z,51.93
2023-02-04T02:06:44.060Z,52.20
2023-02-04T02:11:48.174Z,52.28
2023-02-04T02:16:57.877Z,51.50
2023-02-04T02:22:25.927Z,51.25
2023-02-04T02:27:33.641Z,51.63
2023-02-04T02:32:38.096Z,51.48
2023-02-04T02:37:39.679Z,51.51
2023-02-04T02:42:43.793Z,51.81
2023-02-04T02:47:51.507Z,52.06
2023-02-04T02:52:56.816Z,51.72
2023-02-04T02:58:03.004Z,52.06
2023-02-04T03:03:14.916Z,52.02
2023-02-04T03:08:25.318Z,52.21
2023-02-04T03:13:36.943Z,52.31
2023-02-04T03:18:42.283Z,52.46
2023-02-04T03:23:46.432Z,52.26
2023-02-04T03:28:52.534Z,52.27
2023-02-04T03:33:57.870Z,52.31
2023-02-04T03:38:59.411Z,52.41
2023-02-04T03:44:08.920Z,52.17
2023-02-04T03:49:11.574Z,51.77
2023-02-04T03:54:13.519Z,51.89
2023-02-04T03:59:20.072Z,52.14
2023-02-04T04:04:21.708Z,51.85
2023-02-04T04:09:26.525Z,51.85
2023-02-04T04:14:35.258Z,51.70
2023-02-04T04:19:38.855Z,51.96
2023-02-04T04:24:42.681Z,51.72
2023-02-04T04:29:45.386Z,52.15
2023-02-04T04:34:46.895Z,52.24
2023-02-04T04:39:50.634Z,51.86
2023-02-04T04:44:57.019Z,52.34
2023-02-04T04:50:05.087Z,51.73
2023-02-04T04:55:08.391Z,51.93
2023-02-04T05:00:17.010Z,51.48
2023-02-04T05:05:22.326Z,51.97
2023-02-04T05:10:25.062Z,51.41
2023-02-04T05:15:41.586Z,51.61
2023-02-04T05:20:44.319Z,51.42
2023-02-04T05:25:53.101Z,51.47
2023-02-04T05:30:59.538Z,51.23
2023-02-04T05:36:01.156Z,51.53
2023-02-04T05:41:02.692Z,51.44
2023-02-04T05:46:15.559Z,51.96
2023-02-04T05:51:18.370Z,52.62
2023-02-04T05:56:25.996Z,53.58
2023-02-04T06:01:29.853Z,54.12
2023-02-04T06:06:31.599Z,54.05
2023-02-04T06:11:38.583Z,54.22
2023-02-04T06:16:51.403Z,54.71
2023-02-04T06:21:58.393Z,54.97
2023-02-04T06:27:02.722Z,55.19
2023-02-04T06:32:11.845Z,55.40
2023-02-04T06:37:18.620Z,55.48
2023-02-04T06:42:25.577Z,55.41
2023-02-04T06:47:31.893Z,55.30
2023-02-04T06:52:43.334Z,55.30
2023-02-04T06:57:54.007Z,55.92
2023-02-04T07:02:56.770Z,55.37
2023-02-04T07:08:05.611Z,56.15
2023-02-04T07:13:09.630Z,56.19
2023-02-04T07:18:19.070Z,56.15
2023-02-04T07:23:26.422Z,55.93
2023-02-04T07:28:33.271Z,55.72
2023-02-04T07:33:39.919Z,56.29
2023-02-04T07:38:41.468Z,55.90
2023-02-04T07:43:46.017Z,56.14
2023-02-04T07:49:10.341Z,56.06
2023-02-04T07:54:11.843Z,55.85
2023-02-04T07:59:17.961Z,56.25
2023-02-04T08:04:32.095Z,56.19
2023-02-04T08:09:33.624Z,56.61
2023-02-04T08:14:37.682Z,56.18
2023-02-04T08:19:42.618Z,56.60
2023-02-04T08:24:51.971Z,56.55
2023-02-04T08:29:59.408Z,56.01
2023-02-04T08:35:07.255Z,56.20
2023-02-04T08:40:20.353Z,55.79
2023-02-04T08:45:25.071Z,55.74
2023-02-04T08:50:31.071Z,55.60
2023-02-04T08:55:37.066Z,55.02
2023-02-04T09:00:41.219Z,53.94
2023-02-04T09:05:45.276Z,54.11
2023-02-04T09:10:46.841Z,53.46
2023-02-04T09:15:48.555Z,52.39
2023-02-04T09:20:52.403Z,51.77
2023-02-04T09:25:58.715Z,50.82
2023-02-04T09:31:07.512Z,51.00
2023-02-04T09:36:09.977Z,51.05
2023-02-04T09:41:15.040Z,50.29
2023-02-04T09:46:24.772Z,49.97
2023-02-04T09:51:34.476Z,49.82
2023-02-04T09:56:38.762Z,49.19
2023-02-04T10:01:42.845Z,49.73
2023-02-04T10:06:45.963Z,48.99
2023-02-04T10:11:51.664Z,48.83
2023-02-04T10:17:10.094Z,48.38
2023-02-04T10:22:23.611Z,48.79
2023-02-04T10:27:35.034Z,48.84
2023-02-04T10:32:40.126Z,47.27
2023-02-04T10:37:41.768Z,46.28
2023-02-04T10:42:51.438Z,46.49
2023-02-04T10:47:56.760Z,46.86
2023-02-04T10:53:22.492Z,46.77
2023-02-04T10:58:32.498Z,46.54
2023-02-04T11:03:38.646Z,45.73
2023-02-04T11:08:45.607Z,45.35
2023-02-04T11:13:50.063Z,44.25
2023-02-04T11:19:06.416Z,44.35
2023-02-04T11:24:13.801Z,44.91
2023-02-04T11:29:15.333Z,45.11
2023-02-04T11:34:25.873Z,44.68
2023-02-04T11:39:36.947Z,44.98
2023-02-04T11:44:39.854Z,44.58
2023-02-04T11:49:43.071Z,44.38
2023-02-04T11:54:57.308Z,44.18
2023-02-04T12:00:03.630Z,44.11
2023-02-04T12:05:15.657Z,43.90
2023-02-04T12:10:33.545Z,43.02
2023-02-04T12:15:36.556Z,43.19
2023-02-04T12:20:40.697Z,43.29
2023-02-04T12:25:44.123Z,43.38
2023-02-04T12:30:50.864Z,43.75
2023-02-04T12:35:54.832Z,43.04
2023-02-04T12:40:56.338Z,43.25
2023-02-04T12:46:10.654Z,42.98
2023-02-04T12:51:20.047Z,43.01
2023-02-04T12:56:24.203Z,42.84
2023-02-04T13:01:28.708Z,42.42
2023-02-04T13:06:35.688Z,42.59
2023-02-04T13:11:37.342Z,42.32
2023-02-04T13:16:53.847Z,42.49
2023-02-04T13:21:58.656Z,42.58
2023-02-04T13:27:02.518Z,42.90
2023-02-04T13:32:12.440Z,42.35
2023-02-04T13:37:13.988Z,42.13
2023-02-04T13:42:20.610Z,41.38
2023-02-04T13:47:24.599Z,41.62
2023-02-04T13:52:28.565Z,40.81
2023-02-04T13:57:35.118Z,40.83
2023-02-04T14:02:44.030Z,40.80
2023-02-04T14:07:45.655Z,41.13
2023-02-04T14:12:47.160Z,41.46
2023-02-04T14:17:51.413Z,42.04
2023-02-04T14:22:59.739Z,41.94
2023-02-04T14:28:04.305Z,41.33
2023-02-04T14:33:05.829Z,40.35
2023-02-04T14:38:09.665Z,40.71
2023-02-04T14:43:11.300Z,39.92
2023-02-04T14:48:19.658Z,40.05
2023-02-04T14:53:29.609Z,40.33
2023-02-04T14:58:33.204Z,39.98
2023-02-04T15:03:37.146Z,39.84
2023-02-04T15:08:42.763Z,39.56
2023-02-04T15:13:44.304Z,39.41
2023-02-04T15:18:48.822Z,39.21
2023-02-04T15:23:54.286Z,39.50
2023-02-04T15:29:03.196Z,39.44
2023-02-04T15:34:07.900Z,39.46
2023-02-04T15:39:15.004Z,39.50
2023-02-04T15:44:17.630Z,39.50
2023-02-04T15:49:28.025Z,39.82
2023-02-04T15:54:39.641Z,39.98
2023-02-04T15:59:44.516Z,39.57
2023-02-04T16:04:48.521Z,39.21
2023-02-04T16:09:58.484Z,39.53
2023-02-04T16:15:07.968Z,39.79
2023-02-04T16:20:13.536Z,39.56
2023-02-04T16:25:21.281Z,39.75
2023-02-04T16:30:27.188Z,39.83
2023-02-04T16:35:28.865Z,39.93
2023-02-04T16:40:41.537Z,40.04
2023-02-04T16:45:50.833Z,39.67
2023-02-04T16:51:00.153Z,39.64
2023-02-04T16:56:03.923Z,39.97
2023-02-04T17:01:11.329Z,39.26
2023-02-04T17:06:16.390Z,39.53
2023-02-04T17:11:29.426Z,39.59
2023-02-04T17:16:31.648Z,40.18
2023-02-04T17:21:42.738Z,40.19
2023-02-04T17:26:46.633Z,39.85
2023-02-04T17:31:55.124Z,40.07
2023-02-04T17:36:59.124Z,39.84
2023-02-04T17:42:00.704Z,39.90
2023-02-04T17:52:36.615Z,39.81
2023-02-04T17:57:41.746Z,39.79
2023-02-04T18:02:47.043Z,39.95
2023-02-04T18:08:20.114Z,39.94
2023-02-04T18:13:36.640Z,39.98
2023-02-04T18:18:43.013Z,39.13
2023-02-04T18:23:49.715Z,39.88
2023-02-04T18:29:01.593Z,39.68
2023-02-04T18:34:24.166Z,40.19
2023-02-04T18:39:28.852Z,40.29
2023-02-04T18:44:43.849Z,39.86
2023-02-04T18:49:48.197Z,40.75
2023-02-04T18:54:54.205Z,40.75
2023-02-04T19:00:24.904Z,40.81
2023-02-04T19:05:52.368Z,40.96
2023-02-04T19:10:56.612Z,40.71
2023-02-04T19:16:17.662Z,41.19
2023-02-04T19:21:32.248Z,41.72
2023-02-04T19:27:00.512Z,41.45
2023-02-04T19:32:23.012Z,41.87
2023-02-04T19:37:38.928Z,41.12
2023-02-04T19:42:45.261Z,42.11
2023-02-04T19:47:51.839Z,41.97
2023-02-04T19:53:02.158Z,42.40
2023-02-04T19:58:19.121Z,42.47
2023-02-04T20:03:37.320Z,42.45
2023-02-04T20:08:53.913Z,42.69
2023-02-04T20:14:01.620Z,42.83
2023-02-04T20:19:35.493Z,42.76
2023-02-04T20:24:43.110Z,42.58
2023-02-04T20:29:46.930Z,42.47
2023-02-04T20:34:50.694Z,42.24
2023-02-04T20:39:55.065Z,42.43
2023-02-04T20:45:13.826Z,42.61
2023-02-04T20:50:38.295Z,42.55
2023-02-04T20:56:03.787Z,41.63
2023-02-04T21:01:37.545Z,42.32
2023-02-04T21:06:39.206Z,41.65
2023-02-04T21:11:43.518Z,41.52
2023-02-04T21:16:58.627Z,42.16
2023-02-04T21:22:04.962Z,41.78
2023-02-04T21:27:11.348Z,42.50
2023-02-04T21:32:20.139Z,42.61
2023-02-04T21:37:24.138Z,42.25
2023-02-04T21:42:37.337Z,42.75
2023-02-04T21:47:41.017Z,42.64
2023-02-04T21:52:48.828Z,43.08
2023-02-04T21:57:57.729Z,43.21
2023-02-04T22:02:59.567Z,42.56
2023-02-04T22:08:06.306Z,42.53
2023-02-04T22:13:30.088Z,42.53
2023-02-04T22:18:36.571Z,42.49
2023-02-04T22:23:40.732Z,43.14
2023-02-04T22:28:49.965Z,43.05
2023-02-04T22:33:57.494Z,43.08
2023-02-04T22:39:06.857Z,43.76
2023-02-04T22:44:08.686Z,43.79
2023-02-04T22:49:14.483Z,43.96
2023-02-04T22:54:16.130Z,43.64
2023-02-04T22:59:19.867Z,43.47
2023-02-04T23:04:21.827Z,43.35
2023-02-04T23:09:34.360Z,43.92
2023-02-04T23:14:38.233Z,43.62
2023-02-04T23:19:42.647Z,43.66
2023-02-04T23:24:47.410Z,43.77
2023-02-04T23:29:51.501Z,44.02
2023-02-04T23:34:59.187Z,43.77
2023-02-04T23:40:09.505Z,44.03
2023-02-04T23:45:16.505Z,43.78
2023-02-04T23:50:18.241Z,44.18
2023-02-04T23:55:19.876Z,43.81
